Time;durP1;ratioP1;P1;durP2;ratioP2;P2;SDS_P1;SDS_P2;PMS_P1;PMS_P2;Temp;Humidity;BMP_temperature;BMP_pressure;BME280_temperature;BME280_humidity;BME280_pressure;Samples;Min_cycle;Max_cycle;Signal;HPM_P1;HPM_P2
2022/07/01 00:01:24;;;;;;;3.70;1.30;;;;;;;;;;5077770;28;20123;-63
2022/07/01 00:03:50;;;;;;;2.60;1.10;;;;;;;;;;5070897;28;20120;-63
2022/07/01 00:06:20;;;;;;;5.53;1.27;;;;;;;;;;5078233;28;20036;-63
2022/07/01 00:08:47;;;;;;;2.28;1.20;;;;;;;;;;5084407;28;20460;-63
2022/07/01 00:11:13;;;;;;;3.53;1.20;;;;;;;;;;5080755;28;20494;-63
2022/07/01 00:13:39;;;;;;;4.35;1.30;;;;;;;;;;5060627;28;20028;-63
2022/07/01 00:16:06;;;;;;;4.10;1.30;;;;;;;;;;5069277;28;20039;-63
2022/07/01 00:18:32;;;;;;;3.20;1.30;;;;;;;;;;5059546;28;20041;-63
2022/07/01 00:21:00;;;;;;;2.50;1.30;;;;;;;;;;5067340;28;20064;-63
2022/07/01 00:23:26;;;;;;;3.53;1.10;;;;;;;;;;5071782;28;20094;-63
2022/07/01 00:25:52;;;;;;;2.65;1.15;;;;;;;;;;5069989;28;20033;-63
2022/07/01 00:28:18;;;;;;;5.15;1.05;;;;;;;;;;5059586;28;20036;-63
2022/07/01 00:30:45;;;;;;;3.95;1.30;;;;;;;;;;5068974;28;20036;-63
2022/07/01 00:33:11;;;;;;;3.63;1.10;;;;;;;;;;5073468;28;20493;-63
2022/07/01 00:35:37;;;;;;;3.60;1.20;;;;;;;;;;5074319;28;20064;-63
2022/07/01 00:38:03;;;;;;;1.80;0.95;;;;;;;;;;5061210;28;20033;-63
2022/07/01 00:40:29;;;;;;;4.88;1.10;;;;;;;;;;5066752;28;20445;-63
2022/07/01 00:42:55;;;;;;;2.60;1.40;;;;;;;;;;5071639;28;20048;-63
2022/07/01 00:45:21;;;;;;;3.17;1.02;;;;;;;;;;5080085;28;20037;-63
2022/07/01 00:47:47;;;;;;;1.77;0.93;;;;;;;;;;5068626;28;20025;-62
2022/07/01 00:50:14;;;;;;;1.52;1.30;;;;;;;;;;5070147;28;20032;-63
2022/07/01 00:52:41;;;;;;;2.25;1.00;;;;;;;;;;5060475;28;20066;-63
2022/07/01 00:55:08;;;;;;;4.88;1.08;;;;;;;;;;5069813;28;20127;-63
2022/07/01 00:57:35;;;;;;;2.53;0.98;;;;;;;;;;5064987;28;20426;-63
2022/07/01 01:00:01;;;;;;;2.33;0.80;;;;;;;;;;5067882;28;20068;-63
2022/07/01 01:02:27;;;;;;;1.95;0.95;;;;;;;;;;5063476;28;20499;-62
2022/07/01 01:04:53;;;;;;;1.10;0.63;;;;;;;;;;5076023;28;20032;-62
2022/07/01 01:07:19;;;;;;;1.52;0.77;;;;;;;;;;5082277;28;20520;-63
2022/07/01 01:09:45;;;;;;;1.75;1.10;;;;;;;;;;5087110;28;20040;-62
2022/07/01 01:12:13;;;;;;;1.67;0.68;;;;;;;;;;5091259;28;20044;-63
2022/07/01 01:14:50;;;;;;;2.38;0.70;;;;;;;;;;5063311;28;20529;-63
2022/07/01 01:17:16;;;;;;;2.25;0.75;;;;;;;;;;5078405;28;20040;-63
2022/07/01 01:19:43;;;;;;;1.77;0.68;;;;;;;;;;5076065;28;20043;-62
2022/07/01 01:22:09;;;;;;;1.33;0.90;;;;;;;;;;5072839;28;20048;-62
2022/07/01 01:24:38;;;;;;;3.28;0.90;;;;;;;;;;5058420;28;20405;-62
2022/07/01 01:27:04;;;;;;;1.65;0.80;;;;;;;;;;5082273;28;20035;-63
2022/07/01 01:29:30;;;;;;;2.97;1.02;;;;;;;;;;5085555;28;20043;-63
2022/07/01 01:31:57;;;;;;;1.90;0.90;;;;;;;;;;5070571;28;20145;-63
2022/07/01 01:34:23;;;;;;;3.17;0.70;;;;;;;;;;5069950;28;20448;-62
2022/07/01 01:36:49;;;;;;;1.75;0.90;;;;;;;;;;5070393;28;20045;-63
2022/07/01 01:39:17;;;;;;;1.35;0.70;;;;;;;;;;5081620;28;20114;-62
2022/07/01 01:41:44;;;;;;;1.80;0.98;;;;;;;;;;5070901;28;20048;-62
2022/07/01 01:44:10;;;;;;;3.17;0.93;;;;;;;;;;5071983;28;20043;-63
2022/07/01 01:46:36;;;;;;;1.73;1.00;;;;;;;;;;5075256;28;20032;-63
2022/07/01 01:49:02;;;;;;;0.88;0.63;;;;;;;;;;5084280;28;20043;-63
2022/07/01 01:51:29;;;;;;;1.67;0.90;;;;;;;;;;5068901;28;20037;-63
2022/07/01 01:53:55;;;;;;;1.73;0.68;;;;;;;;;;5062417;28;20071;-62
2022/07/01 01:56:22;;;;;;;1.48;0.80;;;;;;;;;;5066715;28;20504;-63
2022/07/01 01:58:49;;;;;;;1.52;0.85;;;;;;;;;;5070223;28;20045;-63
2022/07/01 02:01:16;;;;;;;1.75;0.63;;;;;;;;;;5062018;28;20052;-62
2022/07/01 02:03:43;;;;;;;0.95;0.60;;;;;;;;;;5063322;28;20394;-62
2022/07/01 02:06:10;;;;;;;1.58;1.00;;;;;;;;;;5076511;28;20045;-63
2022/07/01 02:08:36;;;;;;;1.40;1.13;;;;;;;;;;5080411;28;20044;-62
2022/07/01 02:11:02;;;;;;;2.00;1.55;;;;;;;;;;5069976;28;20090;-62
2022/07/01 02:13:29;;;;;;;3.80;2.70;;;;;;;;;;5071766;28;20041;-63
2022/07/01 02:15:56;;;;;;;4.30;3.38;;;;;;;;;;5078854;28;20043;-62
2022/07/01 02:18:22;;;;;;;8.48;6.15;;;;;;;;;;5084831;28;20046;-62
2022/07/01 02:20:48;;;;;;;9.30;7.28;;;;;;;;;;5082827;28;20516;-63
2022/07/01 02:23:14;;;;;;;12.57;9.98;;;;;;;;;;5054265;28;20044;-63
2022/07/01 02:25:41;;;;;;;15.65;11.40;;;;;;;;;;5072805;28;20040;-62
2022/07/01 02:28:07;;;;;;;18.75;13.73;;;;;;;;;;5072564;28;20040;-62
2022/07/01 02:30:36;;;;;;;18.63;13.93;;;;;;;;;;5077051;28;20028;-62
2022/07/01 02:33:02;;;;;;;21.98;14.50;;;;;;;;;;5072637;28;20111;-62
2022/07/01 02:35:28;;;;;;;18.55;13.60;;;;;;;;;;5079164;28;20044;-62
2022/07/01 02:37:54;;;;;;;19.23;13.00;;;;;;;;;;5071510;28;20087;-62
2022/07/01 02:40:20;;;;;;;20.65;13.68;;;;;;;;;;5052666;28;20036;-63
2022/07/01 02:42:46;;;;;;;17.90;13.23;;;;;;;;;;5064692;28;20037;-62
2022/07/01 02:45:12;;;;;;;19.90;13.07;;;;;;;;;;5060166;28;20054;-63
2022/07/01 02:47:40;;;;;;;17.80;12.80;;;;;;;;;;5069451;28;20037;-63
2022/07/01 02:50:07;;;;;;;19.85;13.88;;;;;;;;;;5079176;28;20032;-62
2022/07/01 02:52:34;;;;;;;19.15;12.70;;;;;;;;;;5054334;28;20076;-63
2022/07/01 02:55:00;;;;;;;20.58;13.40;;;;;;;;;;5069220;28;20036;-63
2022/07/01 02:57:26;;;;;;;18.90;12.48;;;;;;;;;;5071604;28;20043;-63
2022/07/01 02:59:53;;;;;;;18.17;12.27;;;;;;;;;;5057971;28;20040;-63
2022/07/01 03:02:19;;;;;;;17.67;12.65;;;;;;;;;;5079019;28;20051;-63
2022/07/01 03:04:46;;;;;;;19.48;12.55;;;;;;;;;;5082313;28;20051;-63
2022/07/01 03:07:13;;;;;;;16.08;12.07;;;;;;;;;;5071233;28;20032;-63
2022/07/01 03:09:39;;;;;;;19.35;12.10;;;;;;;;;;5058659;28;20115;-63
2022/07/01 03:12:24;;;;;;;18.40;10.77;;;;;;;;;;5077874;28;20041;-62
2022/07/01 03:14:51;;;;;;;15.88;11.13;;;;;;;;;;5069852;28;20502;-62
2022/07/01 03:17:18;;;;;;;17.02;11.00;;;;;;;;;;5066648;28;20064;-62
2022/07/01 03:19:44;;;;;;;14.90;11.18;;;;;;;;;;5069833;28;20043;-62
2022/07/01 03:22:10;;;;;;;16.15;11.18;;;;;;;;;;5080058;28;20067;-63
2022/07/01 03:24:36;;;;;;;14.48;10.18;;;;;;;;;;5079342;28;20040;-62
2022/07/01 03:27:03;;;;;;;14.90;11.00;;;;;;;;;;5069860;28;20098;-62
2022/07/01 03:29:29;;;;;;;14.38;10.93;;;;;;;;;;5066029;28;20490;-63
2022/07/01 03:31:55;;;;;;;15.18;11.00;;;;;;;;;;5082808;28;20051;-63
2022/07/01 03:34:21;;;;;;;15.35;11.23;;;;;;;;;;5071100;28;20085;-63
2022/07/01 03:36:47;;;;;;;17.10;12.13;;;;;;;;;;5068752;28;20131;-63
2022/07/01 03:39:13;;;;;;;16.15;11.95;;;;;;;;;;5070928;28;20194;-62
2022/07/01 03:41:39;;;;;;;17.08;12.10;;;;;;;;;;5079573;28;20040;-62
2022/07/01 03:44:08;;;;;;;18.30;12.57;;;;;;;;;;5069267;28;20127;-62
2022/07/01 03:46:35;;;;;;;17.60;12.93;;;;;;;;;;5068814;28;20047;-62
2022/07/01 03:49:01;;;;;;;17.58;12.75;;;;;;;;;;5087138;28;20044;-62
2022/07/01 03:51:27;;;;;;;18.20;11.88;;;;;;;;;;5061216;28;20196;-62
2022/07/01 03:56:38;;;;;;;16.75;12.73;;;;;;;;;;5065591;28;20044;-62
2022/07/01 03:59:04;;;;;;;18.02;12.38;;;;;;;;;;5077974;28;20036;-62
2022/07/01 04:01:31;;;;;;;20.33;14.10;;;;;;;;;;5063476;28;20123;-62
2022/07/01 04:03:57;;;;;;;19.38;13.77;;;;;;;;;;5076540;28;20047;-62
2022/07/01 04:06:23;;;;;;;18.80;13.60;;;;;;;;;;5072636;28;20048;-62
2022/07/01 04:08:49;;;;;;;24.02;13.70;;;;;;;;;;5084148;28;20067;-62
2022/07/01 04:11:16;;;;;;;22.70;14.88;;;;;;;;;;5079548;28;20043;-62
2022/07/01 04:13:50;;;;;;;25.30;16.05;;;;;;;;;;5089010;28;20028;-62
2022/07/01 04:16:16;;;;;;;23.85;16.20;;;;;;;;;;5057162;28;20123;-62
2022/07/01 04:18:42;;;;;;;26.58;17.30;;;;;;;;;;5076084;28;20494;-62
2022/07/01 04:23:53;;;;;;;28.90;17.27;;;;;;;;;;5086440;22;20659;-65
2022/07/01 04:26:19;;;;;;;26.05;17.90;;;;;;;;;;5027992;28;20048;-65
2022/07/01 04:28:45;;;;;;;27.25;18.48;;;;;;;;;;5075549;28;20115;-65
2022/07/01 04:31:11;;;;;;;28.38;18.08;;;;;;;;;;5073390;28;20076;-65
2022/07/01 04:33:37;;;;;;;30.50;19.55;;;;;;;;;;5078863;28;20032;-64
2022/07/01 04:36:03;;;;;;;27.85;18.65;;;;;;;;;;5066713;28;20119;-65
2022/07/01 04:38:29;;;;;;;28.10;18.83;;;;;;;;;;5070320;28;20052;-65
2022/07/01 04:43:40;;;;;;;34.03;20.55;;;;;;;;;;5059535;28;20044;-65
2022/07/01 04:46:06;;;;;;;30.85;20.35;;;;;;;;;;5055080;28;20044;-65
2022/07/01 04:48:33;;;;;;;31.20;20.65;;;;;;;;;;5075067;28;20071;-65
2022/07/01 04:50:59;;;;;;;30.52;20.02;;;;;;;;;;5074576;28;20086;-65
2022/07/01 04:53:25;;;;;;;33.72;21.23;;;;;;;;;;5079525;28;20051;-65
2022/07/01 04:55:51;;;;;;;30.65;21.20;;;;;;;;;;5063123;28;20500;-65
2022/07/01 04:58:17;;;;;;;32.58;21.02;;;;;;;;;;5083629;28;20044;-65
2022/07/01 05:00:43;;;;;;;33.28;21.45;;;;;;;;;;5085840;28;20041;-65
2022/07/01 05:03:09;;;;;;;33.42;22.15;;;;;;;;;;5054417;28;20478;-65
2022/07/01 05:05:35;;;;;;;33.00;21.80;;;;;;;;;;5072014;28;20032;-65
2022/07/01 05:08:02;;;;;;;32.55;21.58;;;;;;;;;;5073193;28;20032;-65
2022/07/01 05:10:28;;;;;;;34.00;22.08;;;;;;;;;;5078128;28;20042;-65
2022/07/01 05:12:55;;;;;;;33.65;21.40;;;;;;;;;;5083197;28;20266;-65
2022/07/01 05:15:21;;;;;;;35.35;22.73;;;;;;;;;;5063946;28;20045;-65
2022/07/01 05:23:16;;;;;;;36.10;23.85;;;;;;;;;;5072720;28;20036;-64
2022/07/01 05:25:42;;;;;;;32.42;22.55;;;;;;;;;;5083442;28;20591;-65
2022/07/01 05:28:08;;;;;;;34.13;22.25;;;;;;;;;;5076375;28;20035;-65
2022/07/01 05:30:34;;;;;;;36.83;23.75;;;;;;;;;;5063060;28;20037;-64
2022/07/01 05:33:00;;;;;;;34.35;22.63;;;;;;;;;;5065599;28;20425;-65
2022/07/01 05:35:26;;;;;;;35.05;22.27;;;;;;;;;;5052521;28;20040;-65
2022/07/01 05:37:52;;;;;;;37.83;24.17;;;;;;;;;;5067696;28;20099;-65
2022/07/01 05:40:18;;;;;;;34.90;22.85;;;;;;;;;;5068774;28;20127;-64
2022/07/01 05:42:44;;;;;;;37.35;23.83;;;;;;;;;;5079327;28;20127;-64
2022/07/01 05:45:10;;;;;;;37.92;22.92;;;;;;;;;;5078098;28;20115;-65
2022/07/01 05:47:36;;;;;;;37.47;23.83;;;;;;;;;;5076353;28;20399;-65
2022/07/01 05:50:03;;;;;;;33.75;22.75;;;;;;;;;;5072260;28;20120;-65
2022/07/01 05:52:29;;;;;;;36.40;23.52;;;;;;;;;;5067515;28;20535;-64
2022/07/01 05:54:55;;;;;;;35.25;23.70;;;;;;;;;;5073323;28;20036;-64
2022/07/01 05:57:21;;;;;;;33.67;23.58;;;;;;;;;;5072500;28;20056;-64
2022/07/01 05:59:47;;;;;;;34.83;23.67;;;;;;;;;;5072774;28;20037;-64
2022/07/01 06:02:13;;;;;;;33.65;22.50;;;;;;;;;;5072964;28;20040;-64
2022/07/01 06:04:41;;;;;;;34.47;22.77;;;;;;;;;;5079049;28;20032;-64
2022/07/01 06:07:07;;;;;;;33.72;22.65;;;;;;;;;;5079555;28;20482;-64
2022/07/01 06:09:33;;;;;;;36.47;24.42;;;;;;;;;;5071543;28;20032;-64
2022/07/01 06:11:59;;;;;;;34.92;23.92;;;;;;;;;;5077547;28;20093;-64
2022/07/01 06:14:25;;;;;;;35.47;23.83;;;;;;;;;;5067147;28;20040;-64
2022/07/01 06:16:51;;;;;;;36.58;24.67;;;;;;;;;;5071265;28;20052;-64
2022/07/01 06:19:17;;;;;;;32.85;22.40;;;;;;;;;;5071470;28;20033;-65
2022/07/01 06:21:43;;;;;;;34.45;24.00;;;;;;;;;;5067209;28;20099;-64
2022/07/01 06:24:09;;;;;;;37.10;23.70;;;;;;;;;;5067318;28;20072;-65
2022/07/01 06:26:35;;;;;;;35.15;23.55;;;;;;;;;;5075607;28;20044;-65
2022/07/01 06:29:01;;;;;;;34.35;23.92;;;;;;;;;;5068728;28;20052;-65
2022/07/01 06:31:27;;;;;;;34.88;21.90;;;;;;;;;;5081813;28;20044;-64
2022/07/01 06:33:53;;;;;;;35.42;22.88;;;;;;;;;;5083440;28;20039;-64
2022/07/01 06:36:19;;;;;;;36.47;23.60;;;;;;;;;;5073402;28;20036;-65
2022/07/01 06:38:45;;;;;;;36.03;24.02;;;;;;;;;;5073062;28;20106;-65
2022/07/01 06:41:27;;;;;;;35.13;23.38;;;;;;;;;;5067929;28;20135;-64
2022/07/01 06:43:57;;;;;;;33.90;22.58;;;;;;;;;;5061302;28;20036;-64
2022/07/01 06:46:23;;;;;;;35.97;23.50;;;;;;;;;;5070315;28;20119;-64
2022/07/01 06:48:49;;;;;;;32.60;23.45;;;;;;;;;;5070371;28;20167;-64
2022/07/01 06:51:15;;;;;;;34.40;24.10;;;;;;;;;;5064135;28;20118;-65
2022/07/01 06:53:42;;;;;;;33.05;23.55;;;;;;;;;;5074757;28;20039;-65
2022/07/01 06:56:08;;;;;;;33.67;23.60;;;;;;;;;;5056356;28;20054;-65
2022/07/01 06:58:34;;;;;;;35.00;23.02;;;;;;;;;;5074634;28;20043;-64
2022/07/01 07:01:00;;;;;;;35.88;22.85;;;;;;;;;;5079954;28;20452;-65
2022/07/01 07:03:26;;;;;;;33.70;23.73;;;;;;;;;;5078461;28;20040;-65
2022/07/01 07:05:52;;;;;;;33.70;23.17;;;;;;;;;;5066857;28;20045;-65
2022/07/01 07:08:18;;;;;;;34.55;23.95;;;;;;;;;;5070215;28;20398;-64
2022/07/01 07:10:44;;;;;;;37.03;24.42;;;;;;;;;;5064014;28;20382;-64
2022/07/01 07:13:10;;;;;;;35.92;24.70;;;;;;;;;;5060251;28;20033;-65
2022/07/01 07:15:41;;;;;;;36.13;24.70;;;;;;;;;;5068748;28;20085;-65
2022/07/01 07:18:07;;;;;;;37.43;24.23;;;;;;;;;;5060185;28;20059;-65
2022/07/01 07:20:33;;;;;;;33.88;24.10;;;;;;;;;;5066057;28;20818;-65
2022/07/01 07:23:00;;;;;;;37.83;25.05;;;;;;;;;;5061175;28;20053;-64
2022/07/01 07:25:26;;;;;;;36.47;24.20;;;;;;;;;;5069114;28;20128;-64
2022/07/01 07:27:52;;;;;;;42.90;26.05;;;;;;;;;;5072037;28;20036;-64
2022/07/01 07:30:18;;;;;;;35.45;25.10;;;;;;;;;;5071644;28;20474;-64
2022/07/01 07:32:44;;;;;;;37.47;24.65;;;;;;;;;;5071240;28;20032;-64
2022/07/01 07:35:11;;;;;;;32.75;22.70;;;;;;;;;;5071420;28;20047;-64
2022/07/01 07:37:37;;;;;;;33.92;23.95;;;;;;;;;;5071739;28;20044;-64
2022/07/01 07:40:06;;;;;;;37.72;24.40;;;;;;;;;;5071816;28;20036;-64
2022/07/01 07:42:32;;;;;;;34.03;23.38;;;;;;;;;;5072183;28;20432;-64
2022/07/01 07:44:58;;;;;;;33.75;23.85;;;;;;;;;;5071212;28;20123;-64
2022/07/01 07:47:24;;;;;;;33.45;22.45;;;;;;;;;;5071529;28;20036;-64
2022/07/01 07:49:50;;;;;;;31.05;21.58;;;;;;;;;;5071879;28;20255;-64
2022/07/01 07:52:16;;;;;;;31.05;21.63;;;;;;;;;;5071034;28;20379;-64
2022/07/01 07:54:42;;;;;;;32.70;21.83;;;;;;;;;;5066619;28;20035;-64
2022/07/01 07:57:08;;;;;;;30.25;21.25;;;;;;;;;;5071262;28;20090;-64
2022/07/01 07:59:35;;;;;;;32.88;21.63;;;;;;;;;;5062584;28;20535;-64
2022/07/01 08:02:01;;;;;;;34.15;21.88;;;;;;;;;;5071653;28;20044;-64
2022/07/01 08:04:27;;;;;;;32.00;20.33;;;;;;;;;;5071118;28;20036;-64
2022/07/01 08:06:53;;;;;;;32.88;21.08;;;;;;;;;;5071755;28;20410;-64
2022/07/01 08:09:19;;;;;;;31.05;20.70;;;;;;;;;;5069730;28;20445;-64
2022/07/01 08:11:45;;;;;;;32.70;20.92;;;;;;;;;;5071632;28;20116;-64
2022/07/01 08:14:12;;;;;;;34.55;21.25;;;;;;;;;;5071558;28;20489;-64
2022/07/01 08:16:38;;;;;;;33.17;20.25;;;;;;;;;;5075560;28;20048;-64
2022/07/01 08:19:04;;;;;;;28.77;20.58;;;;;;;;;;5074678;28;20064;-64
2022/07/01 08:21:30;;;;;;;33.72;21.25;;;;;;;;;;5075772;28;20040;-64
2022/07/01 08:23:56;;;;;;;31.70;20.45;;;;;;;;;;5074681;28;20045;-64
2022/07/01 08:26:22;;;;;;;28.80;19.17;;;;;;;;;;5075068;28;20041;-64
2022/07/01 08:28:48;;;;;;;26.08;19.05;;;;;;;;;;5051326;28;20037;-64
2022/07/01 08:31:14;;;;;;;29.92;18.38;;;;;;;;;;5055184;28;20182;-64
2022/07/01 08:33:41;;;;;;;25.40;16.45;;;;;;;;;;5059198;28;20068;-64
2022/07/01 08:36:09;;;;;;;24.42;16.92;;;;;;;;;;5074880;28;20126;-64
2022/07/01 08:38:35;;;;;;;22.40;16.50;;;;;;;;;;5074701;28;20048;-64
2022/07/01 08:41:02;;;;;;;29.85;18.73;;;;;;;;;;5074887;28;20094;-64
2022/07/01 08:43:28;;;;;;;30.88;18.10;;;;;;;;;;5074177;28;20478;-64
2022/07/01 08:45:55;;;;;;;24.02;15.75;;;;;;;;;;5057190;28;20457;-64
2022/07/01 08:48:21;;;;;;;25.15;16.35;;;;;;;;;;5074886;28;20509;-64
2022/07/01 08:50:47;;;;;;;20.95;14.75;;;;;;;;;;5074293;28;20372;-64
2022/07/01 08:53:14;;;;;;;21.77;15.45;;;;;;;;;;5074538;28;20040;-65
2022/07/01 08:58:26;;;;;;;22.00;14.38;;;;;;;;;;5072709;28;20123;-65
2022/07/01 09:00:52;;;;;;;19.63;13.63;;;;;;;;;;5061417;28;20567;-64
2022/07/01 09:03:23;;;;;;;19.48;13.05;;;;;;;;;;5072239;28;20068;-65
2022/07/01 09:05:51;;;;;;;20.67;13.10;;;;;;;;;;5074244;28;20044;-65
2022/07/01 09:08:18;;;;;;;20.30;13.60;;;;;;;;;;5074737;28;20036;-64
2022/07/01 09:10:44;;;;;;;22.58;13.27;;;;;;;;;;5074112;28;20037;-65
2022/07/01 09:13:11;;;;;;;21.30;13.48;;;;;;;;;;5074197;28;20037;-64
2022/07/01 09:15:37;;;;;;;20.13;12.95;;;;;;;;;;5073511;28;20146;-64
2022/07/01 09:18:04;;;;;;;22.65;12.15;;;;;;;;;;5056347;28;20044;-65
2022/07/01 09:20:33;;;;;;;19.45;12.15;;;;;;;;;;5074081;28;20037;-64
2022/07/01 09:23:10;;;;;;;15.55;10.40;;;;;;;;;;5074061;28;20563;-64
2022/07/01 09:25:43;;;;;;;15.57;9.63;;;;;;;;;;5073565;28;20076;-64
2022/07/01 09:28:14;;;;;;;14.70;9.73;;;;;;;;;;5055797;28;20059;-64
2022/07/01 09:30:43;;;;;;;13.23;8.70;;;;;;;;;;5073839;28;20048;-64
2022/07/01 09:33:09;;;;;;;14.05;9.63;;;;;;;;;;5055668;28;20486;-64
2022/07/01 09:35:36;;;;;;;14.98;9.75;;;;;;;;;;5073805;28;20093;-65
2022/07/01 09:38:02;;;;;;;17.40;10.55;;;;;;;;;;5073983;28;20044;-65
2022/07/01 09:40:47;;;;;;;17.33;10.77;;;;;;;;;;5055712;28;20075;-65
2022/07/01 09:43:28;;;;;;;18.38;10.68;;;;;;;;;;5073860;28;20044;-64
2022/07/01 09:46:07;;;;;;;15.88;8.82;;;;;;;;;;5073604;28;20036;-64
2022/07/01 09:48:33;;;;;;;14.63;7.68;;;;;;;;;;5055547;28;20051;-64
2022/07/01 09:51:00;;;;;;;15.98;8.48;;;;;;;;;;5055939;28;20040;-65
2022/07/01 09:53:26;;;;;;;15.13;7.55;;;;;;;;;;5073895;28;20036;-65
2022/07/01 09:55:52;;;;;;;12.77;7.65;;;;;;;;;;5073461;28;20048;-64
2022/07/01 09:58:19;;;;;;;10.77;7.03;;;;;;;;;;5073073;28;20032;-64
2022/07/01 10:00:45;;;;;;;11.77;7.30;;;;;;;;;;5073228;28;20055;-64
2022/07/01 10:03:12;;;;;;;9.68;6.07;;;;;;;;;;5073905;28;20502;-64
2022/07/01 10:05:41;;;;;;;12.07;7.18;;;;;;;;;;5070526;28;20540;-64
2022/07/01 10:08:19;;;;;;;13.80;7.32;;;;;;;;;;5056754;28;20036;-64
2022/07/01 10:11:07;;;;;;;10.60;6.97;;;;;;;;;;5052905;28;20544;-65
2022/07/01 10:13:35;;;;;;;12.00;7.80;;;;;;;;;;5053265;28;20048;-64
2022/07/01 10:16:03;;;;;;;11.98;8.20;;;;;;;;;;5035032;28;20047;-65
2022/07/01 10:18:29;;;;;;;11.32;8.07;;;;;;;;;;5065296;28;20493;-65
2022/07/01 10:20:56;;;;;;;11.13;7.15;;;;;;;;;;5073117;28;20045;-64
2022/07/01 10:23:28;;;;;;;11.00;6.70;;;;;;;;;;5072737;28;20394;-65
2022/07/01 10:26:01;;;;;;;12.27;6.50;;;;;;;;;;5106363;22;20539;-62
2022/07/01 10:28:27;;;;;;;10.70;6.75;;;;;;;;;;5093275;28;20037;-62
2022/07/01 10:31:04;;;;;;;10.68;6.05;;;;;;;;;;5093097;28;20044;-62
2022/07/01 10:33:33;;;;;;;10.15;6.20;;;;;;;;;;5093400;28;20040;-62
2022/07/01 10:36:07;;;;;;;8.15;5.38;;;;;;;;;;5092799;28;20051;-62
2022/07/01 10:38:33;;;;;;;10.18;5.38;;;;;;;;;;5091517;28;20506;-62
2022/07/01 10:41:09;;;;;;;7.65;5.03;;;;;;;;;;5092658;28;20559;-62
2022/07/01 10:43:36;;;;;;;7.05;4.90;;;;;;;;;;5093214;28;20054;-62
2022/07/01 10:46:03;;;;;;;7.85;5.10;;;;;;;;;;5093021;28;20040;-62
2022/07/01 10:48:33;;;;;;;6.57;4.80;;;;;;;;;;5092499;28;20046;-63
2022/07/01 10:51:00;;;;;;;8.30;5.00;;;;;;;;;;5092633;28;20032;-62
2022/07/01 10:53:30;;;;;;;7.10;3.95;;;;;;;;;;5093157;28;20389;-62
2022/07/01 10:55:58;;;;;;;8.13;4.55;;;;;;;;;;5092434;28;20511;-62
2022/07/01 10:58:37;;;;;;;7.15;4.20;;;;;;;;;;5092653;28;20075;-62
2022/07/01 11:01:04;;;;;;;5.72;3.78;;;;;;;;;;5092569;28;20036;-62
2022/07/01 11:03:34;;;;;;;7.30;3.83;;;;;;;;;;5092350;28;20226;-63
2022/07/01 11:06:00;;;;;;;7.38;3.90;;;;;;;;;;5092447;28;20044;-62
2022/07/01 11:08:26;;;;;;;6.57;3.70;;;;;;;;;;5092664;28;20132;-63
2022/07/01 11:10:55;;;;;;;3.70;3.35;;;;;;;;;;5092265;28;20032;-62
2022/07/01 11:13:21;;;;;;;4.28;3.10;;;;;;;;;;5092431;28;20032;-63
2022/07/01 11:15:47;;;;;;;6.47;3.30;;;;;;;;;;5091891;28;20405;-63
2022/07/01 11:18:15;;;;;;;6.60;3.00;;;;;;;;;;5092496;28;20482;-63
2022/07/01 11:20:41;;;;;;;6.43;3.50;;;;;;;;;;5092106;28;20036;-62
2022/07/01 11:23:07;;;;;;;7.03;3.40;;;;;;;;;;5092165;28;20401;-62
2022/07/01 11:25:33;;;;;;;5.53;3.42;;;;;;;;;;5091690;28;20040;-62
2022/07/01 11:27:59;;;;;;;5.47;3.28;;;;;;;;;;5092024;28;20039;-63
2022/07/01 11:30:25;;;;;;;6.68;3.35;;;;;;;;;;5091086;28;20122;-62
2022/07/01 11:32:52;;;;;;;5.60;3.20;;;;;;;;;;5092459;28;20043;-63
2022/07/01 11:40:51;;;;;;;6.88;3.88;;;;;;;;;;5091469;28;20070;-63
2022/07/01 11:43:36;;;;;;;5.28;3.15;;;;;;;;;;5092045;28;20125;-63
2022/07/01 11:46:04;;;;;;;5.78;2.95;;;;;;;;;;5091633;28;20044;-63
2022/07/01 11:48:30;;;;;;;5.63;2.83;;;;;;;;;;5091807;28;20063;-62
2022/07/01 11:50:56;;;;;;;6.15;3.50;;;;;;;;;;5091309;28;20446;-62
2022/07/01 11:53:22;;;;;;;8.52;3.85;;;;;;;;;;5091757;28;20036;-62
2022/07/01 11:55:48;;;;;;;4.45;2.83;;;;;;;;;;5091155;28;20119;-62
2022/07/01 11:58:14;;;;;;;8.05;2.80;;;;;;;;;;5092014;28;20098;-62
2022/07/01 12:00:40;;;;;;;11.30;3.03;;;;;;;;;;5091252;28;20498;-62
2022/07/01 12:03:07;;;;;;;5.70;2.60;;;;;;;;;;5090452;28;20439;-62
2022/07/01 12:05:33;;;;;;;7.85;2.10;;;;;;;;;;5091493;28;20043;-62
2022/07/01 12:07:59;;;;;;;10.10;2.47;;;;;;;;;;5090759;28;20036;-62
2022/07/01 12:10:26;;;;;;;6.82;2.60;;;;;;;;;;5091203;28;20036;-62
2022/07/01 12:12:52;;;;;;;5.57;2.38;;;;;;;;;;5091607;28;20067;-62
2022/07/01 12:15:18;;;;;;;4.43;2.10;;;;;;;;;;5090324;28;20097;-62
2022/07/01 12:17:44;;;;;;;4.30;2.03;;;;;;;;;;5091683;28;20075;-63
2022/07/01 12:20:10;;;;;;;5.05;2.55;;;;;;;;;;5090929;28;20083;-62
2022/07/01 12:22:36;;;;;;;7.47;2.90;;;;;;;;;;5090380;28;20048;-63
2022/07/01 12:25:07;;;;;;;6.25;2.55;;;;;;;;;;5089609;28;20062;-62
2022/07/01 12:27:38;;;;;;;8.25;2.55;;;;;;;;;;5091675;28;20076;-62
2022/07/01 12:30:05;;;;;;;5.40;2.40;;;;;;;;;;5090991;28;20093;-62
2022/07/01 12:32:31;;;;;;;5.15;2.03;;;;;;;;;;5091418;28;20081;-62
2022/07/01 12:35:04;;;;;;;4.90;1.80;;;;;;;;;;5091425;28;20039;-62
2022/07/01 12:37:35;;;;;;;7.03;1.67;;;;;;;;;;5091011;28;20563;-63
2022/07/01 12:40:06;;;;;;;8.23;1.75;;;;;;;;;;5090895;28;20058;-63
2022/07/01 12:42:39;;;;;;;6.50;1.67;;;;;;;;;;5091152;28;20393;-62
2022/07/01 12:45:09;;;;;;;6.28;1.83;;;;;;;;;;5091087;28;20048;-62
2022/07/01 12:47:43;;;;;;;5.85;1.80;;;;;;;;;;5090961;28;20050;-62
2022/07/01 12:50:09;;;;;;;3.50;1.50;;;;;;;;;;5091401;28;20032;-62
2022/07/01 12:52:35;;;;;;;4.30;1.70;;;;;;;;;;5091187;28;20032;-62
2022/07/01 12:55:01;;;;;;;4.00;1.55;;;;;;;;;;5091148;28;20040;-62
2022/07/01 12:57:33;;;;;;;3.60;1.55;;;;;;;;;;5091009;28;20044;-62
2022/07/01 12:59:59;;;;;;;2.88;1.42;;;;;;;;;;5091052;28;20040;-62
2022/07/01 13:02:25;;;;;;;5.40;1.50;;;;;;;;;;5093633;28;20101;-62
2022/07/01 13:04:51;;;;;;;5.72;1.55;;;;;;;;;;5093994;28;20036;-62
2022/07/01 13:07:17;;;;;;;4.38;1.73;;;;;;;;;;5094724;28;20071;-62
2022/07/01 13:09:43;;;;;;;4.45;1.58;;;;;;;;;;5094209;28;20093;-62
2022/07/01 13:12:09;;;;;;;3.00;1.50;;;;;;;;;;5094984;28;20035;-62
2022/07/01 13:14:35;;;;;;;3.90;1.85;;;;;;;;;;5094630;28;20519;-62
2022/07/01 13:17:01;;;;;;;4.70;1.60;;;;;;;;;;5094944;28;20036;-62
2022/07/01 13:19:27;;;;;;;5.18;1.90;;;;;;;;;;5094270;28;20046;-62
2022/07/01 13:21:53;;;;;;;5.45;1.75;;;;;;;;;;5094731;28;20044;-62
2022/07/01 13:24:20;;;;;;;5.43;1.80;;;;;;;;;;5094346;28;20097;-62
2022/07/01 13:26:46;;;;;;;4.00;1.60;;;;;;;;;;5093830;28;20119;-62
2022/07/01 13:29:12;;;;;;;4.75;1.70;;;;;;;;;;5094120;28;20386;-63
2022/07/01 13:31:38;;;;;;;4.00;1.60;;;;;;;;;;5094739;28;20036;-63
2022/07/01 13:34:04;;;;;;;5.18;1.80;;;;;;;;;;5094314;28;20082;-62
2022/07/01 13:36:31;;;;;;;6.07;1.50;;;;;;;;;;5094100;28;20405;-63
2022/07/01 13:38:57;;;;;;;3.25;1.52;;;;;;;;;;5094041;28;20085;-62
2022/07/01 13:41:23;;;;;;;5.30;1.70;;;;;;;;;;5094411;28;20092;-62
2022/07/01 13:43:49;;;;;;;4.40;1.58;;;;;;;;;;5093648;28;20040;-62
2022/07/01 13:46:16;;;;;;;4.38;1.00;;;;;;;;;;5094025;28;20036;-62
2022/07/01 13:48:42;;;;;;;7.50;1.15;;;;;;;;;;5094104;28;20082;-63
2022/07/01 13:51:08;;;;;;;3.70;0.90;;;;;;;;;;5093681;28;20078;-62
2022/07/01 13:53:34;;;;;;;3.97;1.17;;;;;;;;;;5091936;28;20032;-62
2022/07/01 13:56:00;;;;;;;3.20;1.10;;;;;;;;;;5093332;28;20044;-62
2022/07/01 13:58:26;;;;;;;2.60;0.70;;;;;;;;;;5092462;28;20052;-63
2022/07/01 14:00:52;;;;;;;4.45;1.15;;;;;;;;;;5093580;28;20046;-62
2022/07/01 14:03:18;;;;;;;4.80;1.02;;;;;;;;;;5093694;28;20409;-63
2022/07/01 14:05:44;;;;;;;3.88;1.10;;;;;;;;;;5093680;28;20040;-62
2022/07/01 14:08:10;;;;;;;3.90;1.50;;;;;;;;;;5095111;28;20036;-63
2022/07/01 14:10:37;;;;;;;3.60;1.00;;;;;;;;;;5093536;28;20039;-62
2022/07/01 14:13:04;;;;;;;4.38;1.35;;;;;;;;;;5092995;28;20044;-62
2022/07/01 14:15:30;;;;;;;2.50;1.10;;;;;;;;;;5093443;28;20040;-62
2022/07/01 14:17:56;;;;;;;2.47;1.20;;;;;;;;;;5093630;28;20388;-63
2022/07/01 14:20:22;;;;;;;4.43;1.30;;;;;;;;;;5093047;28;20055;-63
2022/07/01 14:22:48;;;;;;;5.25;1.50;;;;;;;;;;5093576;28;20047;-62
2022/07/01 14:25:14;;;;;;;3.45;1.40;;;;;;;;;;5093404;28;20059;-62
2022/07/01 14:27:40;;;;;;;5.70;1.13;;;;;;;;;;5093172;28;20040;-62
2022/07/01 14:30:07;;;;;;;3.22;0.93;;;;;;;;;;5093331;28;20512;-63
2022/07/01 14:32:34;;;;;;;4.72;1.30;;;;;;;;;;5093458;28;20043;-63
2022/07/01 14:35:01;;;;;;;5.30;1.40;;;;;;;;;;5093147;28;20036;-62
2022/07/01 14:37:27;;;;;;;4.45;1.20;;;;;;;;;;5093309;28;20036;-63
2022/07/01 14:39:56;;;;;;;5.50;1.67;;;;;;;;;;5093007;28;20405;-62
2022/07/01 14:42:22;;;;;;;3.28;1.15;;;;;;;;;;5093083;28;20477;-63
2022/07/01 14:44:50;;;;;;;5.10;1.48;;;;;;;;;;5093368;28;20044;-62
2022/07/01 14:47:16;;;;;;;4.93;1.55;;;;;;;;;;5092893;28;20560;-62
2022/07/01 14:49:44;;;;;;;2.30;1.35;;;;;;;;;;5092658;28;20058;-63